Iranshahr, Iran
Current Conditions -  °F | °C
As of 2:00 PM on Thursday 27 Nov 2014 (Local Time) from OIZI Reporting Station
Few Clouds Few Clouds  
Wind Chill: 28°   Ceiling: Unl
Heat Index: 28°   Visibility: 6mi
Dew Point:   Wind: 9mph
Humidity: 30%   Direction: 220°SW
Pressure: 29.91"   Gusts: NA
Location:  27.21°N, 60.69°E
Report Text: OIZI 271100Z 22008KT 9999 FEW045 28/09 Q1013
Loading
Personal Weather Stations






























Interactive Weather Map New forecast layout! Learn more

10-Day Weather Forecast

Advertisements
Track Severe Weather on mobile